Time;durP1;ratioP1;P1;durP2;ratioP2;P2;SDS_P1;SDS_P2;PMS_P1;PMS_P2;Temp;Humidity;BMP_temperature;BMP_pressure;BME280_temperature;BME280_humidity;BME280_pressure;Samples;Min_cycle;Max_cycle;Signal;HPM_P1;HPM_P2
2023/07/07 00:02:23;;;;;;;2.65;0.80;;;22.80;1.00;;;;;;4934802;29;20044;-52
2023/07/07 00:04:51;;;;;;;3.17;0.80;;;22.80;1.00;;;;;;4935019;29;20043;-53
2023/07/07 00:07:18;;;;;;;1.05;0.40;;;22.70;1.00;;;;;;4927762;29;20046;-51
2023/07/07 00:09:45;;;;;;;1.60;0.80;;;22.70;1.00;;;;;;4934628;29;20046;-52
2023/07/07 00:12:13;;;;;;;2.00;0.80;;;22.70;1.00;;;;;;4933471;29;20451;-54
2023/07/07 00:14:40;;;;;;;2.65;0.60;;;22.70;1.00;;;;;;4934740;29;20035;-53
2023/07/07 00:17:08;;;;;;;1.10;0.70;;;22.70;1.00;;;;;;4923078;29;20055;-52
2023/07/07 00:19:36;;;;;;;1.45;0.60;;;22.70;1.00;;;;;;4915689;29;20508;-52
2023/07/07 00:22:06;;;;;;;0.95;0.70;;;22.70;1.00;;;;;;4917501;29;20076;-54
2023/07/07 00:24:34;;;;;;;1.33;0.63;;;22.70;1.00;;;;;;4934444;29;20066;-52
2023/07/07 00:27:01;;;;;;;2.75;1.35;;;22.70;1.00;;;;;;4926405;29;20568;-53
2023/07/07 00:29:28;;;;;;;1.77;0.60;;;22.70;1.00;;;;;;4926529;29;20054;-51
2023/07/07 00:31:55;;;;;;;2.85;0.77;;;22.70;1.00;;;;;;4933261;29;20044;-53
2023/07/07 00:34:22;;;;;;;2.53;0.80;;;22.70;1.00;;;;;;4933049;29;20044;-53
2023/07/07 00:36:49;;;;;;;2.70;0.80;;;22.70;1.00;;;;;;4934433;29;20054;-54
2023/07/07 00:39:16;;;;;;;3.30;0.70;;;22.70;1.00;;;;;;4934416;29;20040;-54
2023/07/07 00:41:43;;;;;;;1.60;0.85;;;22.70;1.00;;;;;;4934254;29;20054;-53
2023/07/07 00:44:11;;;;;;;1.48;0.77;;;22.70;1.00;;;;;;4934199;29;20059;-48
2023/07/07 00:46:39;;;;;;;1.63;0.57;;;22.70;1.00;;;;;;4934551;29;20043;-48
2023/07/07 00:49:16;;;;;;;1.77;0.93;;;22.70;1.00;;;;;;4921608;29;20047;-49
2023/07/07 00:54:28;;;;;;;1.73;0.70;;;22.70;1.00;;;;;;4858547;29;20443;-48
2023/07/07 00:56:55;;;;;;;1.50;1.00;;;22.70;1.00;;;;;;4858939;29;20045;-49
2023/07/07 00:59:29;;;;;;;2.65;0.70;;;22.70;1.00;;;;;;4880837;29;20045;-47
2023/07/07 01:01:59;;;;;;;1.15;0.52;;;22.60;1.00;;;;;;4859021;29;20396;-51
2023/07/07 01:04:28;;;;;;;1.52;0.85;;;22.70;1.00;;;;;;4872819;29;20068;-47
2023/07/07 01:07:01;;;;;;;3.03;0.73;;;22.60;1.00;;;;;;4876365;29;20092;-47
2023/07/07 01:09:28;;;;;;;2.35;0.90;;;22.60;1.00;;;;;;4877758;29;20069;-47
2023/07/07 01:11:55;;;;;;;1.80;1.00;;;22.60;1.00;;;;;;4877638;29;20059;-48
2023/07/07 01:14:27;;;;;;;2.53;0.98;;;22.60;1.00;;;;;;4879776;29;20101;-47
2023/07/07 01:17:28;;;;;;;2.05;1.05;;;22.60;1.00;;;;;;4881013;29;20564;-48
2023/07/07 01:20:16;;;;;;;1.98;0.88;;;22.60;1.00;;;;;;4851029;29;20067;-47
2023/07/07 01:25:39;;;;;;;2.13;0.85;;;22.60;1.00;;;;;;5029230;23;20040;-47
2023/07/07 01:28:31;;;;;;;2.85;0.90;;;22.60;1.00;;;;;;4928225;29;20067;-50
2023/07/07 01:31:19;;;;;;;1.85;0.85;;;22.60;1.00;;;;;;4929719;29;20116;-49
2023/07/07 01:33:48;;;;;;;3.10;0.82;;;22.60;1.00;;;;;;4916968;29;20055;-48
2023/07/07 01:36:15;;;;;;;1.88;0.82;;;22.60;1.00;;;;;;4916908;29;20143;-47
2023/07/07 01:38:46;;;;;;;2.67;1.08;;;22.60;1.00;;;;;;4918128;29;20520;-47
2023/07/07 01:41:29;;;;;;;4.45;1.02;;;22.60;1.00;;;;;;4916899;29;20052;-48
2023/07/07 01:44:25;;;;;;;2.50;1.60;;;22.60;1.00;;;;;;4918157;29;20071;-47
2023/07/07 01:47:16;;;;;;;5.10;1.42;;;22.60;1.00;;;;;;4918074;29;20123;-48
2023/07/07 01:49:55;;;;;;;1.25;0.80;;;22.60;1.00;;;;;;4916802;29;20051;-47
2023/07/07 01:52:47;;;;;;;1.55;0.80;;;22.60;1.00;;;;;;4916715;29;20056;-48
2023/07/07 01:55:29;;;;;;;2.33;0.93;;;22.50;1.00;;;;;;4911407;29;20047;-47
2023/07/07 01:58:01;;;;;;;2.13;0.80;;;22.50;1.00;;;;;;4917846;29;20048;-47
2023/07/07 02:00:29;;;;;;;3.92;1.23;;;22.50;1.00;;;;;;4916621;29;20052;-49
2023/07/07 02:02:59;;;;;;;2.67;1.13;;;22.50;1.00;;;;;;4916585;29;20056;-46
2023/07/07 02:05:27;;;;;;;1.45;0.73;;;22.50;1.00;;;;;;4916374;29;20044;-46
2023/07/07 02:07:58;;;;;;;1.50;0.90;;;22.50;1.00;;;;;;4917791;29;20096;-47
2023/07/07 02:10:25;;;;;;;1.63;1.02;;;22.50;1.00;;;;;;4916379;29;20055;-49
2023/07/07 02:12:51;;;;;;;2.88;1.35;;;22.50;1.00;;;;;;4917632;29;20040;-48
2023/07/07 02:15:18;;;;;;;1.98;1.13;;;22.50;1.00;;;;;;4916225;29;20131;-48
2023/07/07 02:17:45;;;;;;;2.05;1.00;;;22.50;1.00;;;;;;4916325;29;20056;-49
2023/07/07 02:20:12;;;;;;;2.60;1.73;;;22.50;1.00;;;;;;4917399;29;20049;-46
2023/07/07 02:22:39;;;;;;;1.92;0.82;;;22.50;1.00;;;;;;4915642;29;20147;-50
2023/07/07 02:25:07;;;;;;;3.40;1.50;;;22.50;1.00;;;;;;4916887;29;20067;-47
2023/07/07 02:27:34;;;;;;;2.40;1.30;;;22.50;1.00;;;;;;4918468;29;20044;-46
2023/07/07 02:30:02;;;;;;;2.17;0.70;;;22.40;1.00;;;;;;4927192;29;20044;-47
2023/07/07 02:32:30;;;;;;;4.40;1.25;;;22.50;1.00;;;;;;4926851;29;20139;-48
2023/07/07 02:35:01;;;;;;;1.70;0.75;;;22.50;1.00;;;;;;4925306;29;20492;-47
2023/07/07 02:37:28;;;;;;;1.50;0.90;;;22.40;1.00;;;;;;4929699;29;20139;-49
2023/07/07 02:39:55;;;;;;;3.38;1.38;;;22.40;1.00;;;;;;4920043;29;20056;-47
2023/07/07 02:42:22;;;;;;;1.60;0.90;;;22.40;1.00;;;;;;4926028;29;20115;-48
2023/07/07 02:44:48;;;;;;;2.15;0.75;;;22.40;1.00;;;;;;4921643;29;20048;-47
2023/07/07 02:47:15;;;;;;;2.15;0.98;;;22.40;1.00;;;;;;4926732;29;20438;-50
2023/07/07 02:49:42;;;;;;;2.13;1.08;;;22.40;1.00;;;;;;4928017;29;20404;-47
2023/07/07 02:52:09;;;;;;;2.25;0.98;;;22.40;1.00;;;;;;4926239;29;20465;-49
2023/07/07 02:54:36;;;;;;;2.47;1.02;;;22.40;1.00;;;;;;4915551;29;20044;-47
2023/07/07 02:57:04;;;;;;;2.08;0.77;;;22.40;1.00;;;;;;4915443;29;20159;-46
2023/07/07 02:59:31;;;;;;;2.15;1.10;;;22.40;1.00;;;;;;4915492;29;20107;-47
2023/07/07 03:01:58;;;;;;;2.38;1.05;;;22.40;1.00;;;;;;4915489;29;20151;-47
2023/07/07 03:04:26;;;;;;;2.63;1.10;;;22.40;1.00;;;;;;4916417;29;20393;-48
2023/07/07 03:06:53;;;;;;;2.47;1.15;;;22.40;1.00;;;;;;4915482;29;20091;-47
2023/07/07 03:09:21;;;;;;;2.95;1.33;;;22.40;1.00;;;;;;4915341;29;20040;-47
2023/07/07 03:11:48;;;;;;;1.70;0.90;;;22.40;1.00;;;;;;4915257;29;20062;-49
2023/07/07 03:14:19;;;;;;;1.80;0.90;;;22.40;1.00;;;;;;4914896;29;20076;-49
2023/07/07 03:16:51;;;;;;;2.63;0.82;;;22.30;1.00;;;;;;4915501;29;20064;-46
2023/07/07 03:19:24;;;;;;;1.98;0.90;;;22.30;1.00;;;;;;4915141;29;20088;-46
2023/07/07 03:22:05;;;;;;;1.63;1.05;;;22.30;1.00;;;;;;4914038;29;20486;-48
2023/07/07 03:24:52;;;;;;;3.15;1.15;;;22.30;1.00;;;;;;4914178;29;20398;-46
2023/07/07 03:30:30;;;;;;;1.65;0.77;;;22.30;1.00;;;;;;4883929;29;20123;-48
2023/07/07 03:33:02;;;;;;;1.88;1.00;;;22.30;1.00;;;;;;4902014;29;20260;-48
2023/07/07 03:35:31;;;;;;;2.95;0.80;;;22.30;1.00;;;;;;4887899;29;20504;-48
2023/07/07 03:37:58;;;;;;;1.52;0.80;;;22.30;1.00;;;;;;4895925;29;20076;-48
2023/07/07 03:40:25;;;;;;;5.45;1.27;;;22.30;1.00;;;;;;4895773;29;20092;-49
2023/07/07 03:42:52;;;;;;;1.75;1.13;;;22.30;1.00;;;;;;4903303;29;20060;-49
2023/07/07 03:45:20;;;;;;;2.83;1.15;;;22.30;1.00;;;;;;4878434;29;20041;-49
2023/07/07 03:47:46;;;;;;;2.28;0.93;;;22.30;1.00;;;;;;4874939;29;20041;-50
2023/07/07 03:50:16;;;;;;;2.80;1.63;;;22.30;1.00;;;;;;4884137;29;20048;-50
2023/07/07 03:52:43;;;;;;;7.38;1.75;;;22.20;1.00;;;;;;4875452;29;20092;-48
2023/07/07 03:55:10;;;;;;;4.22;1.70;;;22.20;1.00;;;;;;4893703;29;20576;-49
2023/07/07 03:57:37;;;;;;;3.92;1.77;;;22.20;1.00;;;;;;4885976;29;20056;-48
2023/07/07 04:00:04;;;;;;;4.55;2.45;;;22.10;1.00;;;;;;4998588;23;20015;-48
2023/07/07 04:02:39;;;;;;;7.30;2.00;;;22.10;1.00;;;;;;4910799;29;20050;-47
2023/07/07 04:05:06;;;;;;;10.73;2.80;;;22.10;1.00;;;;;;4911095;29;20052;-49
2023/07/07 04:07:33;;;;;;;5.05;2.00;;;22.10;1.00;;;;;;4896903;29;20438;-48
2023/07/07 04:10:02;;;;;;;3.00;1.60;;;22.10;1.00;;;;;;4901157;29;20123;-48
2023/07/07 04:12:33;;;;;;;2.72;1.75;;;22.00;1.00;;;;;;4914888;29;20050;-47
2023/07/07 04:15:00;;;;;;;3.28;1.65;;;22.00;1.00;;;;;;4898234;29;20047;-46
2023/07/07 04:17:27;;;;;;;2.20;1.20;;;22.00;1.00;;;;;;4897332;29;20571;-47
2023/07/07 04:19:54;;;;;;;1.45;0.77;;;22.00;1.00;;;;;;4900144;29;20101;-47
2023/07/07 04:22:21;;;;;;;1.85;0.80;;;22.00;1.00;;;;;;4906900;29;20508;-46
2023/07/07 04:25:10;;;;;;;16.52;2.42;;;22.00;1.00;;;;;;4913886;29;20139;-47
2023/07/07 04:27:37;;;;;;;3.55;1.92;;;22.00;1.00;;;;;;4915203;29;20128;-47
2023/07/07 04:30:04;;;;;;;2.40;1.48;;;22.00;1.00;;;;;;4915674;29;20044;-49
2023/07/07 04:32:34;;;;;;;2.13;0.90;;;22.00;1.00;;;;;;4909659;29;20040;-49
2023/07/07 04:35:01;;;;;;;7.18;0.80;;;22.00;1.00;;;;;;4915062;29;20441;-47
2023/07/07 04:37:28;;;;;;;4.20;0.73;;;22.00;1.00;;;;;;4915319;29;20075;-48
2023/07/07 04:39:55;;;;;;;3.50;0.82;;;22.00;1.00;;;;;;4899327;29;20044;-47
2023/07/07 04:42:22;;;;;;;4.57;1.00;;;22.00;1.00;;;;;;4903572;29;20040;-47
2023/07/07 04:44:49;;;;;;;4.70;1.52;;;22.00;1.00;;;;;;4911405;29;20056;-48
2023/07/07 04:47:16;;;;;;;3.40;1.08;;;22.00;1.00;;;;;;4898266;29;20560;-47
2023/07/07 04:49:43;;;;;;;2.15;1.30;;;22.00;1.00;;;;;;4913602;29;20063;-47
2023/07/07 04:52:10;;;;;;;3.35;1.75;;;22.00;1.00;;;;;;4899509;29;20060;-46
2023/07/07 04:54:37;;;;;;;4.03;1.67;;;22.00;1.00;;;;;;4911977;29;20046;-47
2023/07/07 04:57:04;;;;;;;5.68;1.13;;;22.00;1.00;;;;;;4909249;29;20045;-47
2023/07/07 04:59:31;;;;;;;3.53;0.88;;;22.00;1.00;;;;;;4905257;29;20075;-47
2023/07/07 05:01:58;;;;;;;5.22;1.55;;;22.00;1.00;;;;;;4976800;23;20414;-50
2023/07/07 05:04:26;;;;;;;5.18;0.90;;;22.00;1.00;;;;;;4976455;28;20043;-47
2023/07/07 05:06:53;;;;;;;4.20;1.27;;;22.00;1.00;;;;;;4976324;28;20039;-47
2023/07/07 05:09:20;;;;;;;2.28;1.05;;;22.00;1.00;;;;;;4976654;28;20403;-46
2023/07/07 05:11:47;;;;;;;3.22;0.88;;;22.00;1.00;;;;;;4976364;28;20038;-47
2023/07/07 05:14:14;;;;;;;1.75;0.80;;;22.00;1.00;;;;;;4976300;28;20125;-47
2023/07/07 05:16:40;;;;;;;3.97;1.40;;;22.00;1.00;;;;;;4976336;28;20038;-47
2023/07/07 05:19:07;;;;;;;2.42;1.00;;;22.00;1.00;;;;;;4976185;28;20073;-49
2023/07/07 05:21:34;;;;;;;2.25;1.08;;;22.00;1.00;;;;;;4962596;28;20039;-48
2023/07/07 05:24:01;;;;;;;4.32;1.15;;;22.00;1.00;;;;;;4956735;28;20042;-47
2023/07/07 05:26:28;;;;;;;1.52;0.95;;;22.00;1.00;;;;;;4956015;28;20043;-50
2023/07/07 05:29:01;;;;;;;1.27;0.90;;;22.00;1.00;;;;;;4956915;28;20469;-49
2023/07/07 05:31:28;;;;;;;;;;;22.00;1.00;;;;;;4957412;28;20456;-49
2023/07/07 05:33:57;;;;;;;3.33;1.42;;;22.00;1.00;;;;;;4956483;28;19930;-48
2023/07/07 05:36:25;;;;;;;3.13;1.02;;;21.90;1.00;;;;;;4956488;28;20039;-49
2023/07/07 05:38:52;;;;;;;1.80;1.00;;;21.90;1.00;;;;;;4964740;28;20470;-46
2023/07/07 05:41:19;;;;;;;2.05;0.88;;;21.90;1.00;;;;;;4956290;28;20047;-47
2023/07/07 05:43:46;;;;;;;4.68;1.58;;;21.90;1.00;;;;;;4956439;28;20090;-47
2023/07/07 05:46:15;;;;;;;1.85;0.90;;;21.90;1.00;;;;;;4956342;28;20037;-46
2023/07/07 05:48:43;;;;;;;2.58;1.08;;;21.90;1.00;;;;;;4956552;28;20039;-47
2023/07/07 05:51:15;;;;;;;4.15;1.30;;;22.00;1.00;;;;;;4956041;28;20043;-47
2023/07/07 05:53:43;;;;;;;2.10;1.10;;;22.00;1.00;;;;;;4956629;28;20035;-47
2023/07/07 05:56:20;;;;;;;1.60;0.95;;;22.00;1.00;;;;;;4957966;28;20273;-47
2023/07/07 05:58:49;;;;;;;4.80;1.50;;;22.00;1.00;;;;;;4974237;28;20042;-47
2023/07/07 06:01:15;;;;;;;3.25;0.90;;;22.00;1.00;;;;;;4975107;28;20078;-50
2023/07/07 06:03:43;;;;;;;1.48;0.90;;;22.00;1.00;;;;;;5516408;23;20044;-48
2023/07/07 06:06:11;;;;;;;2.47;0.80;;;22.00;1.00;;;;;;4926708;29;20584;-50
2023/07/07 06:08:39;;;;;;;2.03;0.90;;;22.00;1.00;;;;;;4936496;29;20520;-48
2023/07/07 06:11:07;;;;;;;2.88;1.20;;;22.00;1.00;;;;;;4928674;29;20457;-46
2023/07/07 06:13:33;;;;;;;1.58;1.02;;;22.00;1.00;;;;;;4917582;29;20408;-48
2023/07/07 06:16:00;;;;;;;2.05;1.05;;;22.00;1.00;;;;;;4917500;29;20039;-48
2023/07/07 06:18:27;;;;;;;2.53;0.85;;;22.00;1.00;;;;;;4917842;29;20373;-47
2023/07/07 06:20:58;;;;;;;2.60;1.67;;;22.00;1.00;;;;;;4917068;29;20044;-47
2023/07/07 06:23:26;;;;;;;2.67;0.70;;;22.00;1.00;;;;;;4917027;29;20111;-48
2023/07/07 06:25:53;;;;;;;2.08;0.90;;;22.10;1.00;;;;;;4917021;29;20378;-52
2023/07/07 06:28:20;;;;;;;5.18;1.00;;;22.10;1.00;;;;;;4914189;29;20374;-50
2023/07/07 06:30:48;;;;;;;5.22;1.38;;;22.10;1.00;;;;;;4912366;29;20564;-47
2023/07/07 06:33:19;;;;;;;1.80;1.10;;;22.10;1.00;;;;;;4909010;29;20044;-48
2023/07/07 06:35:47;;;;;;;3.25;1.40;;;22.10;1.00;;;;;;5035222;23;20055;-48
2023/07/07 06:38:14;;;;;;;1.80;1.05;;;22.10;1.00;;;;;;4952860;29;20522;-51
2023/07/07 06:40:42;;;;;;;2.10;1.40;;;22.10;1.00;;;;;;4949580;29;20070;-48
2023/07/07 06:43:08;;;;;;;2.53;0.77;;;22.10;1.00;;;;;;4954934;29;20490;-49
2023/07/07 06:45:37;;;;;;;2.00;1.08;;;22.10;1.00;;;;;;4953649;29;20043;-47
2023/07/07 06:48:04;;;;;;;1.90;1.08;;;22.10;1.00;;;;;;4954801;29;20082;-53
2023/07/07 06:50:40;;;;;;;3.05;1.10;;;22.20;1.00;;;;;;4954693;29;20204;-48
2023/07/07 06:53:07;;;;;;;3.30;1.70;;;22.20;1.00;;;;;;4954692;29;20039;-50
2023/07/07 06:55:34;;;;;;;1.60;1.02;;;22.20;1.00;;;;;;4954670;29;20036;-48
2023/07/07 06:58:00;;;;;;;1.25;1.00;;;22.20;1.00;;;;;;4954658;29;20043;-50
2023/07/07 07:00:28;;;;;;;3.05;1.25;;;22.20;1.00;;;;;;4954596;29;20539;-52
2023/07/07 07:02:55;;;;;;;1.95;1.00;;;22.20;1.00;;;;;;4954781;29;20411;-49
2023/07/07 07:08:24;;;;;;;2.67;1.00;;;22.30;1.00;;;;;;4965594;23;20083;-51
2023/07/07 07:10:51;;;;;;;3.03;1.23;;;22.30;1.00;;;;;;4953655;28;20039;-52
2023/07/07 07:13:18;;;;;;;2.42;1.10;;;22.30;1.00;;;;;;4954392;29;20189;-53
2023/07/07 07:15:45;;;;;;;3.83;0.98;;;22.30;1.00;;;;;;4954087;29;20039;-49
2023/07/07 07:18:12;;;;;;;3.80;1.02;;;22.30;1.00;;;;;;4952861;29;20039;-50
2023/07/07 07:20:40;;;;;;;2.70;1.20;;;22.30;1.00;;;;;;4954132;28;20074;-49
2023/07/07 07:23:07;;;;;;;4.35;1.50;;;22.30;1.00;;;;;;4937454;28;20090;-52
2023/07/07 07:25:34;;;;;;;3.85;1.80;;;22.30;1.00;;;;;;4934929;29;20126;-54
2023/07/07 07:28:01;;;;;;;3.35;1.20;;;22.30;1.00;;;;;;4935128;29;20036;-51
2023/07/07 07:30:27;;;;;;;2.17;1.00;;;22.30;1.00;;;;;;4927159;29;20074;-53
2023/07/07 07:32:54;;;;;;;1.77;0.93;;;22.40;1.00;;;;;;4935206;29;20069;-48
2023/07/07 07:35:21;;;;;;;4.38;0.93;;;22.40;1.00;;;;;;4945154;29;20039;-48
2023/07/07 07:37:48;;;;;;;3.47;1.33;;;22.40;1.00;;;;;;4954569;29;20071;-49
2023/07/07 07:40:39;;;;;;;3.20;0.95;;;22.40;1.00;;;;;;4926534;23;20044;-49
2023/07/07 07:43:06;;;;;;;2.97;1.13;;;22.40;1.00;;;;;;4915892;29;20028;-47
2023/07/07 07:45:36;;;;;;;2.42;1.15;;;22.40;1.00;;;;;;4915536;29;20032;-52
2023/07/07 07:48:04;;;;;;;2.35;1.05;;;22.40;1.00;;;;;;4915673;29;20488;-51
2023/07/07 07:50:33;;;;;;;2.22;1.15;;;22.40;1.00;;;;;;4915363;29;20044;-50
2023/07/07 07:53:00;;;;;;;2.80;1.10;;;22.40;1.00;;;;;;4915807;29;20540;-47
2023/07/07 07:55:28;;;;;;;1.75;1.13;;;22.40;1.00;;;;;;4907636;29;20123;-50
2023/07/07 07:57:55;;;;;;;2.17;1.20;;;22.50;1.00;;;;;;4914362;29;20094;-48
2023/07/07 08:00:22;;;;;;;3.08;1.60;;;22.50;1.00;;;;;;4915273;29;20048;-48
2023/07/07 08:02:50;;;;;;;2.55;1.50;;;22.50;1.00;;;;;;4915641;29;20071;-49
2023/07/07 08:05:17;;;;;;;3.72;1.25;;;22.50;1.00;;;;;;4908467;29;20052;-49
2023/07/07 08:07:44;;;;;;;3.00;1.33;;;22.50;1.00;;;;;;4911588;29;20132;-48
2023/07/07 08:10:12;;;;;;;2.17;1.10;;;22.50;1.00;;;;;;4910639;29;20464;-47
2023/07/07 08:12:39;;;;;;;3.65;1.10;;;22.50;1.00;;;;;;4926601;29;20040;-47
2023/07/07 08:15:06;;;;;;;1.77;1.30;;;22.50;1.00;;;;;;4933919;29;20166;-49
2023/07/07 08:17:34;;;;;;;2.55;1.00;;;22.50;1.00;;;;;;4934353;29;20094;-50
2023/07/07 08:20:01;;;;;;;5.38;1.25;;;22.50;1.00;;;;;;4933087;29;20518;-47
2023/07/07 08:22:28;;;;;;;3.03;1.35;;;22.50;1.00;;;;;;4933053;29;20047;-47
2023/07/07 08:24:57;;;;;;;2.45;1.10;;;22.60;1.00;;;;;;4934201;29;20047;-49
2023/07/07 08:27:27;;;;;;;5.28;1.42;;;22.60;1.00;;;;;;4933916;29;20048;-47
2023/07/07 08:29:57;;;;;;;2.28;1.17;;;22.60;1.00;;;;;;4927462;29;20062;-48
2023/07/07 08:32:24;;;;;;;1.90;1.00;;;22.50;1.00;;;;;;4914606;29;20436;-49
2023/07/07 08:34:53;;;;;;;3.20;1.27;;;22.60;1.00;;;;;;4914989;29;20036;-47
2023/07/07 08:37:25;;;;;;;2.67;1.33;;;22.60;1.00;;;;;;4915089;29;20040;-49
2023/07/07 08:39:52;;;;;;;2.97;1.10;;;22.60;1.00;;;;;;5060688;23;20383;-48
2023/07/07 08:42:25;;;;;;;4.00;1.20;;;22.60;1.00;;;;;;4933758;29;20055;-47
2023/07/07 08:44:54;;;;;;;1.77;0.98;;;22.60;1.00;;;;;;4933897;29;20040;-49
2023/07/07 08:47:42;;;;;;;2.08;1.08;;;22.60;1.00;;;;;;4933725;29;20079;-51
2023/07/07 08:50:48;;;;;;;2.60;1.10;;;22.60;1.00;;;;;;4934045;29;20040;-52
2023/07/07 08:53:17;;;;;;;3.85;1.30;;;22.60;1.00;;;;;;4875103;29;20049;-48
2023/07/07 08:56:10;;;;;;;3.22;1.05;;;22.60;1.00;;;;;;4862454;29;20046;-49
2023/07/07 08:59:10;;;;;;;3.30;1.48;;;22.60;1.00;;;;;;4896228;29;20052;-47
2023/07/07 09:01:54;;;;;;;1.73;1.10;;;22.60;1.00;;;;;;4907735;29;20523;-50
2023/07/07 09:04:29;;;;;;;1.90;1.13;;;22.60;1.00;;;;;;4914622;29;20434;-50
2023/07/07 09:06:59;;;;;;;1.23;0.88;;;22.60;1.00;;;;;;4915014;29;20400;-49
2023/07/07 09:09:48;;;;;;;1.77;0.88;;;22.60;1.00;;;;;;4914624;29;20063;-47
2023/07/07 09:12:20;;;;;;;2.60;1.33;;;22.70;1.00;;;;;;4914269;29;20044;-47
2023/07/07 09:14:51;;;;;;;1.80;1.00;;;22.70;1.00;;;;;;4914801;29;20055;-49
2023/07/07 09:17:40;;;;;;;2.75;1.25;;;22.60;1.00;;;;;;4914722;29;20500;-48
2023/07/07 09:20:09;;;;;;;4.63;1.38;;;22.70;1.00;;;;;;4914818;29;20044;-47
2023/07/07 09:22:43;;;;;;;3.50;1.20;;;22.70;1.00;;;;;;4914690;29;20458;-49
2023/07/07 09:25:24;;;;;;;2.30;1.20;;;22.70;1.00;;;;;;4914529;29;20036;-48
2023/07/07 09:28:13;;;;;;;1.85;1.30;;;22.70;1.00;;;;;;4914623;29;20048;-49
2023/07/07 09:30:52;;;;;;;2.70;1.60;;;22.70;1.00;;;;;;4914619;29;20115;-48
2023/07/07 09:33:21;;;;;;;2.70;1.20;;;22.70;1.00;;;;;;4916697;29;20096;-48
2023/07/07 09:36:14;;;;;;;2.63;1.58;;;22.70;1.00;;;;;;4918058;29;20036;-50
2023/07/07 09:39:01;;;;;;;3.28;1.80;;;22.70;1.00;;;;;;4911493;29;20063;-49
2023/07/07 09:41:48;;;;;;;2.53;1.20;;;22.70;1.00;;;;;;4993598;23;20059;-51
2023/07/07 09:44:26;;;;;;;3.13;1.30;;;22.70;1.00;;;;;;4955573;28;20047;-48
2023/07/07 09:47:19;;;;;;;3.35;1.40;;;22.70;1.00;;;;;;4950209;29;20062;-50
2023/07/07 09:50:16;;;;;;;4.95;1.10;;;22.70;1.00;;;;;;4949686;29;20114;-50
2023/07/07 09:52:48;;;;;;;1.90;1.13;;;22.70;1.00;;;;;;4922254;29;20040;-48
2023/07/07 09:55:25;;;;;;;3.17;1.73;;;22.70;1.00;;;;;;4916677;29;20090;-48
2023/07/07 09:57:58;;;;;;;2.60;1.10;;;22.70;1.00;;;;;;4908121;29;20484;-54
2023/07/07 10:00:26;;;;;;;;;;;22.80;1.00;;;;;;4913802;29;20089;-52
2023/07/07 10:03:44;;;;;;;2.67;1.20;;;22.70;1.00;;;;;;4914207;29;19926;-51
2023/07/07 10:06:36;;;;;;;9.95;1.95;;;22.70;1.00;;;;;;4916426;29;20188;-54
2023/07/07 10:09:04;;;;;;;2.45;1.08;;;22.70;1.00;;;;;;4916212;29;20479;-52
2023/07/07 10:11:40;;;;;;;5.75;1.70;;;22.80;1.00;;;;;;5013663;23;20103;-51
2023/07/07 10:14:14;;;;;;;4.85;1.10;;;22.80;1.00;;;;;;4930983;29;20042;-51
2023/07/07 10:16:54;;;;;;;2.88;1.13;;;22.80;1.00;;;;;;4931121;29;20038;-53
2023/07/07 10:19:24;;;;;;;4.78;1.52;;;22.80;1.00;;;;;;4941185;29;20043;-52
2023/07/07 10:21:51;;;;;;;4.57;1.70;;;22.80;1.00;;;;;;4951601;28;20039;-53
2023/07/07 10:24:19;;;;;;;3.05;1.30;;;22.80;1.00;;;;;;4933621;29;20058;-51
2023/07/07 10:26:47;;;;;;;3.28;1.27;;;22.80;1.00;;;;;;4932677;29;20062;-54
2023/07/07 10:29:18;;;;;;;6.57;1.60;;;22.80;1.00;;;;;;4941738;29;20082;-51
2023/07/07 10:31:48;;;;;;;4.07;1.88;;;22.80;1.00;;;;;;4930998;29;20039;-49
2023/07/07 10:34:37;;;;;;;3.78;1.58;;;22.80;1.00;;;;;;4950060;29;20039;-53
2023/07/07 10:37:19;;;;;;;3.40;1.60;;;22.80;1.00;;;;;;4946699;28;20058;-50
2023/07/07 10:39:54;;;;;;;3.78;1.42;;;22.80;1.00;;;;;;4932829;29;20055;-50
2023/07/07 10:42:23;;;;;;;3.25;1.60;;;22.80;1.00;;;;;;4982861;23;20055;-51
2023/07/07 10:44:56;;;;;;;5.80;1.98;;;22.90;1.00;;;;;;4929375;29;20039;-54
2023/07/07 10:47:32;;;;;;;3.40;1.50;;;22.90;1.00;;;;;;4931663;29;20473;-49
2023/07/07 10:50:00;;;;;;;3.35;1.77;;;22.90;1.00;;;;;;4949418;29;20032;-49
2023/07/07 10:52:36;;;;;;;3.03;1.95;;;22.90;1.00;;;;;;4944694;28;20047;-54
2023/07/07 10:55:18;;;;;;;3.97;1.63;;;22.90;1.00;;;;;;4943509;29;20046;-49
2023/07/07 10:57:56;;;;;;;2.83;1.38;;;22.90;1.00;;;;;;4931428;29;20043;-50
2023/07/07 11:00:51;;;;;;;4.65;1.65;;;22.90;1.00;;;;;;4954526;28;20377;-49
2023/07/07 11:03:38;;;;;;;2.92;1.55;;;22.90;1.00;;;;;;4954709;28;20079;-52
2023/07/07 11:06:31;;;;;;;4.97;1.85;;;22.90;1.00;;;;;;4954645;28;20114;-48
2023/07/07 11:09:03;;;;;;;2.45;1.25;;;22.90;1.00;;;;;;4954573;28;20101;-48
2023/07/07 11:15:51;;;;;;;5.88;1.73;;;22.90;1.00;;;;;;5350595;23;20055;-48
2023/07/07 11:18:41;;;;;;;3.50;1.85;;;22.90;1.00;;;;;;4886913;29;20091;-49
2023/07/07 11:21:39;;;;;;;6.45;1.67;;;22.90;1.00;;;;;;4891972;29;20048;-48
2023/07/07 11:24:20;;;;;;;3.70;2.00;;;22.90;1.00;;;;;;4915777;29;20097;-48
2023/07/07 11:27:43;;;;;;;5.28;1.60;;;22.90;1.00;;;;;;4920638;29;20051;-49
2023/07/07 11:30:13;;;;;;;6.65;1.75;;;22.90;1.00;;;;;;4927370;29;20032;-48
2023/07/07 11:32:50;;;;;;;2.70;1.33;;;22.90;1.00;;;;;;4911285;29;20123;-48
2023/07/07 11:35:38;;;;;;;9.63;2.25;;;22.90;1.00;;;;;;4918602;29;20040;-49
2023/07/07 11:38:41;;;;;;;2.55;1.98;;;22.90;1.00;;;;;;4923933;29;20430;-48
2023/07/07 11:41:31;;;;;;;;;;;22.90;1.00;;;;;;4916409;29;20032;-48
2023/07/07 11:44:27;;;;;;;2.40;1.33;;;22.90;1.00;;;;;;4929433;29;20294;-48
2023/07/07 11:47:15;;;;;;;2.30;1.63;;;22.90;1.00;;;;;;5508954;23;20441;-48
2023/07/07 11:49:59;;;;;;;6.18;1.63;;;22.90;1.00;;;;;;4930708;29;20037;-50
2023/07/07 11:53:03;;;;;;;2.92;1.42;;;22.90;1.00;;;;;;4953254;28;20134;-48
2023/07/07 11:55:30;;;;;;;;;;;22.90;1.00;;;;;;4949742;28;20047;-48
2023/07/07 11:58:19;;;;;;;3.05;2.13;;;22.90;1.00;;;;;;4934671;29;20379;-48
2023/07/07 12:00:59;;;;;;;3.38;2.17;;;22.90;1.00;;;;;;4934798;29;20035;-48
2023/07/07 12:03:29;;;;;;;5.28;1.50;;;22.90;1.00;;;;;;4934532;29;20496;-48
2023/07/07 12:06:00;;;;;;;3.42;1.67;;;22.90;1.00;;;;;;4934559;29;20487;-48
2023/07/07 12:08:52;;;;;;;4.88;1.85;;;22.90;1.00;;;;;;4934849;29;20044;-50
2023/07/07 12:11:21;;;;;;;2.35;1.40;;;22.90;1.00;;;;;;4934775;29;20095;-49
2023/07/07 12:14:14;;;;;;;4.70;2.00;;;22.90;1.00;;;;;;4934356;29;20119;-48
2023/07/07 12:16:43;;;;;;;2.67;1.25;;;22.90;1.00;;;;;;4953453;29;20062;-48
2023/07/07 12:19:26;;;;;;;2.55;1.30;;;22.90;1.00;;;;;;5163465;23;20120;-48
2023/07/07 12:21:55;;;;;;;4.20;1.03;;;22.90;1.00;;;;;;4927863;29;20099;-50
2023/07/07 12:24:32;;;;;;;4.00;1.85;;;23.00;1.00;;;;;;4934109;29;20282;-48
2023/07/07 12:27:09;;;;;;;2.33;1.20;;;22.90;1.00;;;;;;4934527;29;20078;-49
2023/07/07 12:29:42;;;;;;;7.35;1.92;;;22.90;1.00;;;;;;4934427;29;20044;-47
2023/07/07 12:32:09;;;;;;;3.47;1.60;;;22.90;1.00;;;;;;4934823;29;20106;-47
2023/07/07 12:34:40;;;;;;;4.28;1.40;;;22.90;1.00;;;;;;4934470;29;20055;-49
2023/07/07 12:37:17;;;;;;;3.65;1.27;;;23.00;1.00;;;;;;4934917;29;20103;-48
2023/07/07 12:40:01;;;;;;;2.50;1.20;;;23.00;1.00;;;;;;4927339;29;20416;-50
2023/07/07 12:42:31;;;;;;;2.97;1.73;;;22.90;1.00;;;;;;4934658;29;20482;-47
2023/07/07 12:45:11;;;;;;;2.80;1.40;;;23.00;1.00;;;;;;4934657;29;20051;-48
2023/07/07 12:47:40;;;;;;;3.55;1.30;;;22.90;1.00;;;;;;4935266;29;20071;-49
2023/07/07 12:53:05;;;;;;;4.30;1.20;;;23.00;1.00;;;;;;5178537;23;20509;-47
2023/07/07 12:55:55;;;;;;;5.65;1.13;;;23.00;1.00;;;;;;4926679;29;20047;-50
2023/07/07 12:58:23;;;;;;;4.38;1.63;;;23.00;1.00;;;;;;4934274;29;20055;-49
2023/07/07 13:01:04;;;;;;;2.28;1.63;;;23.00;1.00;;;;;;4934537;29;20042;-48
2023/07/07 13:03:31;;;;;;;2.78;1.80;;;23.00;1.00;;;;;;4934415;29;20071;-52
2023/07/07 13:06:00;;;;;;;2.63;1.80;;;23.00;1.00;;;;;;4935182;29;20044;-49
2023/07/07 13:08:38;;;;;;;2.22;1.58;;;23.00;1.00;;;;;;4923472;29;20044;-49
2023/07/07 13:11:29;;;;;;;2.65;1.35;;;22.90;1.00;;;;;;4921029;29;20111;-49
2023/07/07 13:13:56;;;;;;;2.58;1.40;;;23.00;1.00;;;;;;4922791;29;20503;-50
2023/07/07 13:16:24;;;;;;;3.55;1.67;;;23.00;1.00;;;;;;4923023;29;20036;-51
2023/07/07 13:18:51;;;;;;;2.88;1.55;;;23.00;1.00;;;;;;4927386;29;20048;-51
2023/07/07 13:21:19;;;;;;;4.07;1.67;;;23.00;1.00;;;;;;4942146;29;20055;-49
2023/07/07 13:23:49;;;;;;;2.40;1.63;;;23.00;1.00;;;;;;4949051;23;20794;-49
2023/07/07 13:26:28;;;;;;;3.58;1.50;;;23.00;1.00;;;;;;4918814;29;20067;-48
2023/07/07 13:29:05;;;;;;;3.10;1.80;;;23.00;1.00;;;;;;4920817;29;20123;-54
2023/07/07 13:31:38;;;;;;;2.53;1.17;;;23.00;1.00;;;;;;4907277;29;20252;-56
2023/07/07 13:34:10;;;;;;;4.50;1.95;;;23.00;1.00;;;;;;4899364;29;20041;-50
2023/07/07 13:36:37;;;;;;;2.05;1.35;;;23.00;1.00;;;;;;4898983;29;20076;-51
2023/07/07 13:39:07;;;;;;;3.92;1.40;;;23.00;1.00;;;;;;4899723;29;20115;-53
2023/07/07 13:41:34;;;;;;;3.20;1.52;;;23.00;1.00;;;;;;4898861;29;20044;-51
2023/07/07 13:44:01;;;;;;;4.70;1.92;;;23.00;1.00;;;;;;4899576;29;20110;-53
2023/07/07 13:46:30;;;;;;;3.13;1.92;;;23.00;1.00;;;;;;4898947;29;20053;-54